Time,TemperatureF,DewpointF,PressureIn,WindDirection,WindDirectionDegrees,WindSpeedMPH,WindSpeedGustMPH,Humidity,HourlyPrecipIn,Conditions,Clouds,dailyrainin,SoftwareType,DateUTC
2013-03-12 00:00:00,35.7,33.0,29.44,ENE,57,0.0,5.0,88,0.16,,,0.59,weatherlink.com 1.10,2013-03-12 04:00:00,
2013-03-12 00:15:00,35.3,32.0,29.44,NE,55,1.0,6.0,88,0.17,,,0.62,weatherlink.com 1.10,2013-03-12 04:15:00,
2013-03-12 00:30:00,35.0,32.0,29.43,ENE,57,2.0,6.0,88,0.16,,,0.66,weatherlink.com 1.10,2013-03-12 04:30:00,
2013-03-12 00:45:00,34.6,31.0,29.44,NNE,19,2.0,6.0,88,0.12,,,0.67,weatherlink.com 1.10,2013-03-12 04:45:00,
2013-03-12 01:00:00,34.3,31.0,29.44,North,350,2.0,3.0,88,0.09,,,0.69,weatherlink.com 1.10,2013-03-12 05:00:00,
2013-03-12 01:15:00,34.0,31.0,29.44,NNW,340,2.0,4.0,88,0.08,,,0.71,weatherlink.com 1.10,2013-03-12 05:15:00,
2013-03-12 01:30:00,33.7,31.0,29.44,NW,325,1.0,4.0,88,0.08,,,0.02,weatherlink.com 1.10,2013-03-12 05:30:00,
2013-03-12 01:45:00,33.6,30.0,29.45,NW,305,3.0,5.0,88,0.07,,,0.02,weatherlink.com 1.10,2013-03-12 05:45:00,
2013-03-12 02:01:00,33.5,30.0,29.46,NW,306,3.0,6.0,88,0.05,,,0.02,weatherlink.com 1.10,2013-03-12 06:01:00,
2013-03-12 02:16:00,32.9,30.0,29.47,WNW,291,6.0,10.0,88,0.02,,,0.02,weatherlink.com 1.10,2013-03-12 06:16:00,
2013-03-12 02:31:00,32.6,30.0,29.49,NW,308,2.0,5.0,88,0.00,,,0.02,weatherlink.com 1.10,2013-03-12 06:31:00,
2013-03-12 02:46:00,32.3,29.0,29.50,NW,324,4.0,6.0,88,0.00,,,0.02,weatherlink.com 1.10,2013-03-12 06:46:00,
2013-03-12 03:31:00,31.0,28.0,29.52,NW,317,0.0,0.0,88,0.00,,,0.02,weatherlink.com 1.10,2013-03-12 07:31:00,
2013-03-12 03:46:00,30.1,27.0,29.52,NNE,26,0.0,0.0,89,0.00,,,0.02,weatherlink.com 1.10,2013-03-12 07:46:00,
2013-03-12 04:01:00,29.4,26.0,29.54,NNW,339,0.0,0.0,88,0.00,,,0.02,weatherlink.com 1.10,2013-03-12 08:01:00,
2013-03-12 04:16:00,29.1,26.0,29.55,WNW,282,0.0,0.0,89,0.00,,,0.02,weatherlink.com 1.10,2013-03-12 08:16:00,
2013-03-12 04:31:00,28.7,26.0,29.55,WNW,301,0.0,0.0,88,0.00,,,0.02,weatherlink.com 1.10,2013-03-12 08:31:00,
2013-03-12 04:46:00,27.9,25.0,29.56,NNW,331,0.0,0.0,88,0.00,,,0.02,weatherlink.com 1.10,2013-03-12 08:46:00,
2013-03-12 05:01:00,27.6,25.0,29.57,WNW,299,0.0,0.0,89,0.00,,,0.02,weatherlink.com 1.10,2013-03-12 09:01:00,
2013-03-12 05:16:00,27.4,25.0,29.58,NW,320,0.0,0.0,89,0.00,,,0.02,weatherlink.com 1.10,2013-03-12 09:16:00,
2013-03-12 05:31:00,27.3,24.0,29.59,NNW,333,0.0,0.0,88,0.00,,,0.02,weatherlink.com 1.10,2013-03-12 09:31:00,
2013-03-12 05:46:00,27.2,24.0,29.61,WNW,297,0.0,0.0,89,0.00,,,0.02,weatherlink.com 1.10,2013-03-12 09:46:00,
2013-03-12 06:01:00,27.2,24.0,29.61,WNW,296,0.0,0.0,89,0.00,,,0.02,weatherlink.com 1.10,2013-03-12 10:01:00,
2013-03-12 06:16:00,27.6,25.0,29.62,NW,321,0.0,0.0,88,0.00,,,0.02,weatherlink.com 1.10,2013-03-12 10:16:00,
2013-03-12 06:31:00,27.8,25.0,29.64,WNW,288,0.0,0.0,89,0.00,,,0.02,weatherlink.com 1.10,2013-03-12 10:31:00,
2013-03-12 06:46:00,27.7,25.0,29.65,WNW,286,0.0,0.0,89,0.00,,,0.02,weatherlink.com 1.10,2013-03-12 10:46:00,
2013-03-12 07:16:00,27.4,25.0,29.65,NW,307,0.0,0.0,89,0.00,,,0.02,weatherlink.com 1.10,2013-03-12 11:16:00,
2013-03-12 07:31:00,27.3,24.0,29.65,NW,318,0.0,0.0,88,0.00,,,0.02,weatherlink.com 1.10,2013-03-12 11:31:00,
2013-03-12 07:47:00,27.2,24.0,29.66,NW,313,0.0,0.0,88,0.00,,,0.02,weatherlink.com 1.10,2013-03-12 11:47:00,
2013-03-12 08:02:00,27.0,24.0,29.67,West,277,0.0,0.0,89,0.00,,,0.02,weatherlink.com 1.10,2013-03-12 12:02:00,
2013-03-12 08:17:00,26.7,24.0,29.69,West,280,0.0,0.0,88,0.00,,,0.02,weatherlink.com 1.10,2013-03-12 12:17:00,
2013-03-12 08:32:00,26.6,24.0,29.69,West,269,0.0,0.0,89,0.00,,,0.02,weatherlink.com 1.10,2013-03-12 12:32:00,
2013-03-12 08:47:00,26.1,23.0,29.70,WNW,285,0.0,0.0,88,0.00,,,0.02,weatherlink.com 1.10,2013-03-12 12:47:00,
2013-03-12 09:17:00,25.5,23.0,29.71,NW,313,0.0,0.0,89,0.00,,,0.02,weatherlink.com 1.10,2013-03-12 13:17:00,
2013-03-12 09:47:00,25.7,23.0,29.73,NW,306,0.0,0.0,89,0.00,,,0.02,weatherlink.com 1.10,2013-03-12 13:47:00,
2013-03-12 10:02:00,25.5,23.0,29.74,WNW,297,0.0,0.0,88,0.00,,,0.02,weatherlink.com 1.10,2013-03-12 14:02:00,
2013-03-12 10:17:00,25.3,23.0,29.74,West,279,0.0,0.0,89,0.00,,,0.02,weatherlink.com 1.10,2013-03-12 14:17:00,
2013-03-12 10:32:00,25.5,23.0,29.74,WNW,284,0.0,0.0,89,0.00,,,0.02,weatherlink.com 1.10,2013-03-12 14:32:00,
2013-03-12 10:47:00,25.6,23.0,29.74,NW,314,0.0,0.0,89,0.00,,,0.02,weatherlink.com 1.10,2013-03-12 14:47:00,
2013-03-12 11:02:00,25.7,23.0,29.75,WNW,296,0.0,0.0,89,0.00,,,0.02,weatherlink.com 1.10,2013-03-12 15:02:00,
2013-03-12 11:17:00,26.0,23.0,29.75,NW,309,0.0,0.0,88,0.00,,,0.02,weatherlink.com 1.10,2013-03-12 15:17:00,
2013-03-12 11:32:00,26.2,23.0,29.75,WNW,294,0.0,0.0,88,0.00,,,0.02,weatherlink.com 1.10,2013-03-12 15:32:00,
2013-03-12 11:47:00,26.6,24.0,29.76,WNW,292,0.0,0.0,89,0.00,,,0.02,weatherlink.com 1.10,2013-03-12 15:47:00,
2013-03-12 12:02:00,27.0,24.0,29.76,NW,317,0.0,0.0,88,0.00,,,0.02,weatherlink.com 1.10,2013-03-12 16:02:00,
2013-03-12 12:17:00,27.2,24.0,29.76,West,270,0.0,0.0,88,0.00,,,0.02,weatherlink.com 1.10,2013-03-12 16:17:00,
2013-03-12 12:32:00,27.4,24.0,29.76,West,278,0.0,0.0,88,0.00,,,0.02,weatherlink.com 1.10,2013-03-12 16:32:00,
2013-03-12 13:02:00,27.9,25.0,29.77,WNW,285,0.0,0.0,88,0.00,,,0.02,weatherlink.com 1.10,2013-03-12 17:02:00,
2013-03-12 13:17:00,28.0,25.0,29.77,WNW,282,0.0,0.0,88,0.00,,,0.02,weatherlink.com 1.10,2013-03-12 17:17:00,
2013-03-12 13:32:00,28.2,25.0,29.78,West,269,0.0,0.0,88,0.00,,,0.02,weatherlink.com 1.10,2013-03-12 17:32:00,
2013-03-12 13:47:00,28.5,25.0,29.78,West,278,0.0,0.0,88,0.00,,,0.02,weatherlink.com 1.10,2013-03-12 17:47:00,
2013-03-12 14:02:00,28.7,26.0,29.78,NW,323,0.0,0.0,88,0.00,,,0.02,weatherlink.com 1.10,2013-03-12 18:02:00,
2013-03-12 14:17:00,28.5,25.0,29.78,West,274,0.0,0.0,88,0.00,,,0.02,weatherlink.com 1.10,2013-03-12 18:17:00,
2013-03-12 14:32:00,28.2,25.0,29.79,NW,318,0.0,0.0,88,0.00,,,0.02,weatherlink.com 1.10,2013-03-12 18:32:00,
2013-03-12 14:47:00,28.2,25.0,29.79,WNW,300,0.0,0.0,88,0.00,,,0.02,weatherlink.com 1.10,2013-03-12 18:47:00,
2013-03-12 15:02:00,28.3,25.0,29.79,West,273,0.0,0.0,88,0.00,,,0.02,weatherlink.com 1.10,2013-03-12 19:02:00,
2013-03-12 15:17:00,27.4,24.0,29.79,West,268,0.0,0.0,88,0.00,,,0.02,weatherlink.com 1.10,2013-03-12 19:17:00,
2013-03-12 15:32:00,27.6,25.0,29.79,West,280,0.0,0.0,88,0.00,,,0.02,weatherlink.com 1.10,2013-03-12 19:32:00,
2013-03-12 16:02:00,27.8,25.0,29.80,WNW,287,0.0,0.0,88,0.00,,,0.02,weatherlink.com 1.10,2013-03-12 20:02:00,
2013-03-12 16:17:00,27.5,24.0,29.80,WNW,292,0.0,0.0,87,0.00,,,0.02,weatherlink.com 1.10,2013-03-12 20:17:00,
2013-03-12 16:32:00,27.1,24.0,29.81,SW,219,0.0,0.0,88,0.00,,,0.02,weatherlink.com 1.10,2013-03-12 20:32:00,
2013-03-12 16:47:00,26.6,24.0,29.81,WSW,255,0.0,0.0,88,0.00,,,0.02,weatherlink.com 1.10,2013-03-12 20:47:00,
2013-03-12 17:02:00,26.3,24.0,29.81,WNW,289,0.0,0.0,89,0.00,,,0.02,weatherlink.com 1.10,2013-03-12 21:02:00,
2013-03-12 17:17:00,26.3,24.0,29.82,WSW,252,0.0,0.0,89,0.00,,,0.02,weatherlink.com 1.10,2013-03-12 21:17:00,
2013-03-12 17:32:00,26.6,24.0,29.82,WSW,253,0.0,0.0,88,0.00,,,0.02,weatherlink.com 1.10,2013-03-12 21:32:00,
2013-03-12 17:47:00,26.5,23.0,29.82,WSW,253,0.0,0.0,88,0.00,,,0.02,weatherlink.com 1.10,2013-03-12 21:47:00,
2013-03-12 18:02:00,26.6,24.0,29.82,SW,229,0.0,0.0,88,0.00,,,0.02,weatherlink.com 1.10,2013-03-12 22:02:00,
2013-03-12 18:17:00,26.5,23.0,29.82,West,270,0.0,0.0,88,0.00,,,0.02,weatherlink.com 1.10,2013-03-12 22:17:00,
2013-03-12 18:32:00,26.4,23.0,29.83,WNW,298,0.0,0.0,88,0.00,,,0.02,weatherlink.com 1.10,2013-03-12 22:32:00,
2013-03-12 18:47:00,25.9,23.0,29.83,WNW,283,0.0,0.0,88,0.00,,,0.02,weatherlink.com 1.10,2013-03-12 22:47:00,
2013-03-12 19:02:00,25.6,23.0,29.84,WNW,290,0.0,0.0,89,0.00,,,0.02,weatherlink.com 1.10,2013-03-12 23:02:00,
2013-03-12 19:18:00,25.4,22.0,29.84,WNW,288,0.0,0.0,88,0.00,,,0.02,weatherlink.com 1.10,2013-03-12 23:18:00,
2013-03-12 19:33:00,25.0,22.0,29.85,NW,309,0.0,0.0,88,0.00,,,0.02,weatherlink.com 1.10,2013-03-12 23:33:00,
2013-03-12 19:48:00,24.5,22.0,29.85,NNW,327,0.0,0.0,88,0.00,,,0.02,weatherlink.com 1.10,2013-03-12 23:48:00,
2013-03-12 20:03:00,24.2,21.0,29.86,NW,319,0.0,0.0,88,0.00,,,0.02,weatherlink.com 1.10,2013-03-13 00:03:00,
2013-03-12 20:18:00,23.9,21.0,29.87,NW,307,0.0,0.0,89,0.00,,,0.02,weatherlink.com 1.10,2013-03-13 00:18:00,
2013-03-12 20:33:00,23.8,21.0,29.87,NW,326,0.0,0.0,88,0.00,,,0.02,weatherlink.com 1.10,2013-03-13 00:33:00,
2013-03-12 20:48:00,23.8,21.0,29.88,NW,313,0.0,0.0,88,0.00,,,0.02,weatherlink.com 1.10,2013-03-13 00:48:00,
2013-03-12 21:03:00,23.7,21.0,29.88,NW,306,0.0,0.0,88,0.00,,,0.02,weatherlink.com 1.10,2013-03-13 01:03:00,
2013-03-12 21:18:00,23.5,21.0,29.89,NW,306,0.0,0.0,88,0.00,,,0.02,weatherlink.com 1.10,2013-03-13 01:18:00,
2013-03-12 21:33:00,23.2,21.0,29.89,NNW,333,0.0,0.0,89,0.00,,,0.02,weatherlink.com 1.10,2013-03-13 01:33:00,
2013-03-12 21:48:00,22.9,20.0,29.89,NNW,342,0.0,0.0,89,0.00,,,0.02,weatherlink.com 1.10,2013-03-13 01:48:00,
2013-03-12 22:03:00,22.6,20.0,29.89,NNW,342,0.0,0.0,89,0.00,,,0.02,weatherlink.com 1.10,2013-03-13 02:03:00,
2013-03-12 22:18:00,22.2,20.0,29.89,NNW,342,0.0,0.0,89,0.00,,,0.02,weatherlink.com 1.10,2013-03-13 02:18:00,
2013-03-12 22:33:00,21.9,19.0,29.89,NNW,342,0.0,0.0,89,0.00,,,0.02,weatherlink.com 1.10,2013-03-13 02:33:00,
2013-03-12 22:48:00,21.7,19.0,29.90,NNW,342,0.0,0.0,89,0.00,,,0.02,weatherlink.com 1.10,2013-03-13 02:48:00,
2013-03-12 23:03:00,20.8,18.0,29.90,NNW,342,0.0,0.0,89,0.00,,,0.02,weatherlink.com 1.10,2013-03-13 03:03:00,
2013-03-12 23:18:00,19.9,17.0,29.89,West,273,0.0,0.0,89,0.00,,,0.02,weatherlink.com 1.10,2013-03-13 03:18:00,
2013-03-12 23:33:00,19.7,17.0,29.89,West,273,0.0,0.0,89,0.00,,,0.02,weatherlink.com 1.10,2013-03-13 03:33:00,
2013-03-12 23:48:00,19.4,17.0,29.89,West,273,0.0,0.0,89,0.00,,,0.02,weatherlink.com 1.10,2013-03-13 03:48:00,